首页
METAR-TAF:

METAR-TAF

机场 :

Joliet Regional Airport

喬利埃特, 伊利诺伊州, 美国

纬度: 41-31-05N, 经度: 088-10-31W, 海拔: 177米

当前天气观测

该预报发布于15分钟前的14:55 UTC
风速9节,风向
温度 24°C
湿度 78%
气压 1013 hPa
能見度: 16.1公里
多云层高于5500英尺
阴天层高于6500英尺

METAR: KJOT 221455Z AUTO 19009KT 10SM BKN055 OVC065 24/20 A2992 RMK AO2 T02350204

时间: 10:10 (15:10 UTC)


TAF: 丢失

超过4000个机场的气象观测和天气预报(METAR&TAF报告)。

可查询的气象台以黄色和红色小点在地图上表示。

将鼠标移到小点上方,可查看气象台名称。

然后点击查看天气观测和预报。

如需切换地图:点击带黑十字的绿色按钮放大地图;点击带横线的绿色按钮缩小地图;或者点击绿色箭头查看邻近地区的地图。


METAR-TAF: